Time;durP1;ratioP1;P1;durP2;ratioP2;P2;SDS_P1;SDS_P2;PMS_P1;PMS_P2;Temp;Humidity;BMP_temperature;BMP_pressure;BME280_temperature;BME280_humidity;BME280_pressure;Samples;Min_cycle;Max_cycle;Signal;HPM_P1;HPM_P2
2023/03/25 00:53:15;;;;;;;11.10;3.70;;;;;;;10.21;91.41;99158.30;180575;1258;45231;31
2023/03/25 01:07:04;;;;;;;7.10;4.20;;;;;;;10.16;91.03;99163.02;179309;1263;58218;31
2023/03/25 01:11:56;;;;;;;8.50;5.50;;;;;;;10.15;91.32;99160.27;179149;1259;45708;31
2023/03/25 01:21:10;;;;;;;3.90;2.10;;;;;;;10.17;90.96;99152.69;177706;1262;45322;31
2023/03/25 01:53:17;;;;;;;5.00;2.20;;;;;;;10.29;88.15;99122.40;180845;1263;44068;-88
2023/03/25 01:57:23;;;;;;;8.40;3.70;;;;;;;10.28;88.25;99127.81;180782;1263;59418;-88
2023/03/25 02:01:26;;;;;;;15.00;7.90;;;;;;;10.31;87.94;99124.20;180775;1262;43894;-87
2023/03/25 02:05:46;;;;;;;84.70;43.80;;;;;;;10.31;87.68;99125.38;180734;1263;44431;-87
2023/03/25 02:09:49;;;;;;;141.30;74.60;;;;;;;10.29;87.50;99119.80;180771;1266;43926;-87
2023/03/25 02:13:54;;;;;;;64.90;35.60;;;;;;;10.20;87.43;99117.81;180803;1263;43909;-88
2023/03/25 02:18:12;;;;;;;62.90;38.30;;;;;;;10.10;87.07;99115.39;180637;1265;60487;-87
2023/03/25 02:22:36;;;;;;;46.30;25.90;;;;;;;9.94;87.47;99111.70;180711;1265;43691;-87
2023/03/25 02:27:03;;;;;;;55.70;29.20;;;;;;;9.83;88.13;99107.27;180808;1262;44017;-87
2023/03/25 02:31:24;;;;;;;;;;;;;;;9.73;88.23;99094.86;180821;1265;43910;-87
2023/03/25 02:35:27;;;;;;;51.80;20.70;;;;;;;9.68;88.65;99107.09;180866;1264;43533;-87
2023/03/25 02:39:34;;;;;;;27.40;15.70;;;;;;;9.65;89.18;99105.99;180845;1264;58841;-88
2023/03/25 02:44:04;;;;;;;25.80;15.30;;;;;;;9.61;89.12;99101.23;180861;1263;43795;-88
2023/03/25 02:48:32;;;;;;;13.20;8.50;;;;;;;9.53;89.34;99103.88;180783;1263;44184;-88
2023/03/25 02:52:46;;;;;;;14.10;7.70;;;;;;;9.51;88.93;99103.24;180729;1263;44203;-88
2023/03/25 02:56:56;;;;;;;13.00;7.40;;;;;;;9.51;88.87;99108.32;180520;1264;44157;-89
2023/03/25 03:01:00;;;;;;;11.90;6.20;;;;;;;9.45;88.70;99116.55;180689;1264;59682;-89
2023/03/25 03:05:21;;;;;;;14.20;5.20;;;;;;;9.38;88.97;99119.84;180721;1264;43836;-88
2023/03/25 03:09:45;;;;;;;3.40;2.50;;;;;;;9.23;89.36;99122.88;180558;1264;43744;-88
2023/03/25 03:14:06;;;;;;;3.80;2.50;;;;;;;9.11;91.06;99120.82;180618;1263;43743;-88
2023/03/25 03:18:17;;;;;;;3.30;1.30;;;;;;;9.05;92.02;99119.27;180714;1264;43781;-87
2023/03/25 03:22:51;;;;;;;3.80;2.40;;;;;;;9.01;92.48;99118.70;180711;1263;58245;-88
2023/03/25 03:27:22;;;;;;;4.20;2.60;;;;;;;9.04;92.35;99116.91;180670;1262;44181;-88
2023/03/25 03:31:35;;;;;;;5.00;3.30;;;;;;;9.07;92.55;99116.02;180584;1264;43769;-88
2023/03/25 03:36:03;;;;;;;9.30;2.60;;;;;;;9.12;92.56;99113.61;180768;1263;43956;-88
2023/03/25 03:40:15;;;;;;;2.80;2.10;;;;;;;9.15;92.14;99113.52;180723;1264;43753;-88
2023/03/25 03:44:24;;;;;;;5.50;2.40;;;;;;;9.16;91.81;99112.97;180616;1265;57964;-88
2023/03/25 03:48:50;;;;;;;5.20;1.90;;;;;;;9.21;91.61;99111.14;180663;1264;43888;-88
2023/03/25 03:53:08;;;;;;;3.40;1.80;;;;;;;9.27;91.65;99110.23;180565;1263;43800;-88
2023/03/25 03:57:40;;;;;;;5.80;2.40;;;;;;;9.28;91.61;99105.89;180719;1263;44210;-88
2023/03/25 04:01:46;;;;;;;4.40;2.40;;;;;;;9.35;91.01;99106.84;180676;1263;43746;-88
2023/03/25 04:05:57;;;;;;;;;;;;;;;9.35;90.80;99113.05;180567;1264;58430;-88
2023/03/25 04:10:05;;;;;;;3.30;1.70;;;;;;;9.35;90.84;99110.65;180709;1264;43809;-87
2023/03/25 04:14:09;;;;;;;7.70;2.30;;;;;;;9.27;90.79;99107.10;180744;1265;44089;-88
2023/03/25 04:18:13;;;;;;;7.30;2.70;;;;;;;9.22;91.04;99104.58;180569;1264;43801;-88
2023/03/25 04:22:20;;;;;;;7.70;2.70;;;;;;;9.21;91.66;99101.85;180716;1263;43799;-88
2023/03/25 04:26:24;;;;;;;10.40;5.20;;;;;;;9.20;91.89;99101.38;180571;1264;59470;-88
2023/03/25 04:30:28;;;;;;;6.30;4.30;;;;;;;9.18;92.15;99101.24;180617;1264;43805;-88
2023/03/25 04:34:32;;;;;;;6.60;4.00;;;;;;;9.17;92.13;99108.60;180732;1263;44175;-87
2023/03/25 04:38:36;;;;;;;5.30;3.90;;;;;;;9.18;91.76;99108.31;180791;1264;44484;-87
2023/03/25 04:42:41;;;;;;;3.50;3.10;;;;;;;9.17;91.41;99108.96;180580;1264;44104;-87
2023/03/25 04:46:50;;;;;;;2.80;2.50;;;;;;;9.12;91.49;99110.45;180364;1264;57918;31
2023/03/25 04:56:29;;;;;;;23.70;3.80;;;;;;;9.05;91.98;99110.77;180557;1262;44984;31
2023/03/25 05:05:48;;;;;;;4.10;3.10;;;;;;;9.05;92.48;99110.92;179775;1261;44308;31
2023/03/25 05:37:55;;;;;;;4.80;3.60;;;;;;;10.65;93.41;99119.11;180689;1258;44157;31
2023/03/25 05:47:04;;;;;;;5.70;4.40;;;;;;;12.01;89.08;99109.94;174883;1257;44913;31
2023/03/25 05:51:43;;;;;;;4.50;4.20;;;;;;;12.11;87.12;99105.34;180566;1264;44716;31
2023/03/25 05:56:29;;;;;;;11.10;3.80;;;;;;;12.21;87.36;99103.40;180256;1261;59965;31
2023/03/25 06:01:09;;;;;;;3.40;3.10;;;;;;;12.60;88.94;99108.08;180542;1260;44577;31
2023/03/25 06:15:38;;;;;;;3.80;3.00;;;;;;;12.89;83.93;99109.91;180560;1259;45210;31
2023/03/25 06:30:13;;;;;;;7.90;4.60;;;;;;;12.80;83.78;99115.70;179328;1259;44263;31
2023/03/25 06:44:24;;;;;;;;;;;;;;;12.63;84.39;99126.59;179375;1257;57938;31
2023/03/25 06:48:44;;;;;;;5.30;3.10;;;;;;;13.05;85.08;99124.15;178857;1263;44625;-88
2023/03/25 06:52:47;;;;;;;3.60;3.00;;;;;;;13.62;84.08;99119.70;180609;1265;43813;-87
2023/03/25 06:56:51;;;;;;;4.40;2.00;;;;;;;14.22;81.91;99117.48;180405;1266;48138;-88
2023/03/25 07:00:54;;;;;;;4.50;3.60;;;;;;;14.81;80.17;99113.70;180486;1264;44205;-88
2023/03/25 07:04:59;;;;;;;4.30;3.20;;;;;;;15.16;77.53;99111.41;180737;1265;59529;-88
2023/03/25 07:09:03;;;;;;;6.10;5.00;;;;;;;15.29;76.29;99116.24;180594;1266;44003;-88
2023/03/25 07:13:08;;;;;;;4.00;3.10;;;;;;;15.23;76.01;99108.09;180547;1265;44069;-88
2023/03/25 07:17:12;;;;;;;5.40;2.70;;;;;;;15.03;76.21;99104.02;180572;1265;44386;-88
2023/03/25 07:21:17;;;;;;;3.60;1.60;;;;;;;15.03;77.16;99101.84;180623;1265;43705;-88
2023/03/25 07:25:21;;;;;;;3.80;1.20;;;;;;;15.25;75.66;99106.41;180622;1267;57930;-88
2023/03/25 07:29:25;;;;;;;5.80;1.00;;;;;;;15.20;75.62;99105.52;180501;1266;44074;-88
2023/03/25 07:33:28;;;;;;;1.30;0.70;;;;;;;14.98;74.55;99104.40;180535;1267;44583;-87
2023/03/25 07:37:31;;;;;;;2.10;0.90;;;;;;;14.73;75.07;99102.66;180417;1269;44067;-86
2023/03/25 07:41:34;;;;;;;2.20;0.50;;;;;;;14.49;76.66;99106.41;180529;1265;43892;-86
2023/03/25 07:45:38;;;;;;;1.00;0.80;;;;;;;14.32;76.04;99107.48;180640;1264;58200;-87
2023/03/25 07:49:48;;;;;;;1.80;0.80;;;;;;;14.23;75.93;99108.82;180501;1265;43919;-87
2023/03/25 07:53:52;;;;;;;3.70;1.20;;;;;;;14.10;75.84;99109.58;180354;1267;44034;-87
2023/03/25 07:57:57;;;;;;;3.90;1.40;;;;;;;14.05;76.90;99112.65;180437;1267;44124;-87
2023/03/25 08:02:01;;;;;;;2.00;1.50;;;;;;;14.11;78.42;99121.10;180469;1266;44067;-87
2023/03/25 08:06:05;;;;;;;1.30;1.10;;;;;;;14.27;77.20;99123.37;180524;1266;58596;-87
2023/03/25 08:10:09;;;;;;;2.90;1.40;;;;;;;14.51;77.46;99125.17;180558;1266;43734;-87
2023/03/25 08:14:13;;;;;;;3.90;0.80;;;;;;;14.98;76.22;99122.97;180394;1265;44025;-87
2023/03/25 08:18:16;;;;;;;2.50;0.40;;;;;;;15.36;73.06;99105.48;180397;1266;43908;-87
2023/03/25 08:22:19;;;;;;;2.60;0.60;;;;;;;15.68;71.77;99103.00;180432;1269;44118;-87
2023/03/25 08:26:25;;;;;;;0.70;0.60;;;;;;;15.55;70.61;99117.85;180393;1266;59631;-87
2023/03/25 08:30:29;;;;;;;2.30;0.80;;;;;;;15.25;70.26;99114.98;180543;1266;43914;-88
2023/03/25 08:34:38;;;;;;;1.40;0.60;;;;;;;14.90;70.99;99113.38;180233;1267;44368;-88
2023/03/25 08:38:42;;;;;;;1.20;0.50;;;;;;;14.80;72.61;99113.86;180510;1266;44377;-89
2023/03/25 08:42:45;;;;;;;2.30;0.30;;;;;;;14.70;74.60;99114.77;180296;1267;44104;-87
2023/03/25 08:46:48;;;;;;;0.30;0.20;;;;;;;14.61;70.81;99115.17;180409;1266;60559;-87
2023/03/25 08:50:52;;;;;;;1.10;0.20;;;;;;;14.57;72.54;99117.45;180663;1263;43729;-84
2023/03/25 08:54:56;;;;;;;1.90;0.60;;;;;;;14.48;71.00;99109.85;180598;1264;44126;-89
2023/03/25 08:59:00;;;;;;;0.70;0.40;;;;;;;14.37;70.23;99108.67;180482;1264;43950;-89
2023/03/25 09:03:04;;;;;;;1.60;0.80;;;;;;;14.24;69.83;99109.03;180739;1263;43964;-86
2023/03/25 09:07:09;;;;;;;1.20;0.80;;;;;;;14.18;70.19;99112.23;180495;1264;57732;-86
2023/03/25 09:11:15;;;;;;;0.80;0.40;;;;;;;14.12;71.60;99120.77;180580;1265;44079;-89
2023/03/25 09:15:33;;;;;;;1.20;0.30;;;;;;;14.19;72.02;99118.23;180590;1265;43743;-88
2023/03/25 09:19:36;;;;;;;1.90;0.60;;;;;;;14.30;71.99;99120.30;180583;1264;43902;-90
2023/03/25 09:23:40;;;;;;;0.90;0.80;;;;;;;14.27;70.80;99124.56;180602;1263;44017;-89
2023/03/25 09:27:44;;;;;;;0.90;0.80;;;;;;;14.06;70.27;99125.45;180700;1264;58323;-89
2023/03/25 09:31:47;;;;;;;1.30;0.80;;;;;;;13.88;73.77;99141.16;180487;1265;223291;-89
2023/03/25 09:35:51;;;;;;;0.90;0.40;;;;;;;13.87;73.34;99143.90;180518;1265;44682;-90
2023/03/25 09:39:56;;;;;;;1.10;0.70;;;;;;;13.86;70.92;99144.58;180573;1265;44017;-89
2023/03/25 09:44:13;;;;;;;1.00;0.60;;;;;;;13.97;72.02;99148.02;180643;1264;43940;-89
2023/03/25 09:48:32;;;;;;;1.60;0.60;;;;;;;14.08;69.88;99148.16;180628;1264;58307;-89
2023/03/25 09:52:49;;;;;;;0.90;0.70;;;;;;;14.24;68.87;99152.78;180832;1264;43909;-91
2023/03/25 09:56:58;;;;;;;1.70;0.90;;;;;;;14.39;69.66;99153.20;180623;1265;44093;-88
2023/03/25 10:01:20;;;;;;;1.30;1.00;;;;;;;14.65;68.67;99145.15;180326;1265;43969;-86
2023/03/25 10:05:55;;;;;;;2.90;0.90;;;;;;;14.86;69.41;99132.23;180530;1265;43940;-90
2023/03/25 10:10:22;;;;;;;3.30;1.10;;;;;;;15.01;67.57;99112.09;180729;1265;60155;-91
2023/03/25 10:14:50;;;;;;;1.30;1.20;;;;;;;15.36;67.34;99113.33;180563;1264;43677;-86
2023/03/25 10:19:14;;;;;;;1.30;1.20;;;;;;;15.62;66.23;99104.84;180498;1265;43791;-89
2023/03/25 10:23:27;;;;;;;3.20;1.90;;;;;;;15.51;63.94;99099.84;180417;1264;43947;-89
2023/03/25 10:27:41;;;;;;;2.20;1.20;;;;;;;15.27;65.52;99103.11;180511;1265;51337;-88
2023/03/25 10:31:56;;;;;;;3.40;1.70;;;;;;;14.66;67.72;99102.40;180622;1264;58198;-87
2023/03/25 10:36:01;;;;;;;2.10;0.90;;;;;;;14.15;69.20;99113.72;180442;1265;44197;-87
2023/03/25 10:40:33;;;;;;;0.90;0.50;;;;;;;13.70;66.26;99098.84;180376;1265;44051;-88
2023/03/25 10:44:36;;;;;;;0.90;0.80;;;;;;;13.85;65.37;99097.27;180436;1265;44304;-88
2023/03/25 10:48:40;;;;;;;1.40;0.80;;;;;;;14.15;65.37;99099.91;180416;1264;44386;-88
2023/03/25 10:52:46;;;;;;;1.20;0.60;;;;;;;14.49;64.96;99096.94;180330;1264;57016;-87
2023/03/25 10:56:57;;;;;;;1.10;0.40;;;;;;;14.78;65.83;99095.70;180594;1264;44250;-87
2023/03/25 11:01:09;;;;;;;1.00;0.30;;;;;;;14.98;66.47;99087.27;180506;1264;44177;-88
2023/03/25 11:05:17;;;;;;;1.20;0.90;;;;;;;14.88;62.88;99080.27;180315;1264;44134;-88
2023/03/25 11:09:23;;;;;;;1.50;0.60;;;;;;;15.02;65.46;99080.16;180335;1265;43799;-89
2023/03/25 11:13:28;;;;;;;2.40;0.40;;;;;;;15.39;65.52;99081.79;180501;1265;57642;-89
2023/03/25 11:17:32;;;;;;;4.40;0.70;;;;;;;15.79;63.83;99071.13;180344;1265;43808;-89
2023/03/25 11:21:35;;;;;;;3.50;1.10;;;;;;;16.07;61.72;99066.11;180487;1265;43786;-88
2023/03/25 11:25:40;;;;;;;4.30;0.80;;;;;;;15.70;62.23;99081.52;180167;1264;44085;-89
2023/03/25 11:29:54;;;;;;;1.20;0.40;;;;;;;15.37;63.19;99080.85;180271;1266;43837;-89
2023/03/25 11:34:03;;;;;;;3.20;1.20;;;;;;;15.00;62.51;99091.15;180405;1265;59805;-89
2023/03/25 11:38:18;;;;;;;2.10;0.40;;;;;;;14.59;63.38;99091.44;180456;1266;44043;-91
2023/03/25 11:42:32;;;;;;;2.70;0.50;;;;;;;14.15;65.47;99098.88;180357;1265;44094;-90
2023/03/25 11:46:42;;;;;;;1.70;0.70;;;;;;;13.64;71.42;99117.27;180248;1266;44257;-89
2023/03/25 11:50:51;;;;;;;3.00;1.10;;;;;;;12.72;81.09;99135.58;180573;1264;44107;-90
2023/03/25 11:54:55;;;;;;;1.40;0.60;;;;;;;12.11;89.09;99146.94;180620;1264;60355;-91
2023/03/25 11:59:01;;;;;;;1.60;0.80;;;;;;;11.84;91.08;99146.36;180562;1264;44243;-89
2023/03/25 12:03:10;;;;;;;1.00;0.90;;;;;;;11.71;95.55;99175.61;180543;1264;44258;-89
2023/03/25 12:07:18;;;;;;;1.70;1.00;;;;;;;11.14;91.02;99168.94;180582;1264;44115;-88
2023/03/25 12:11:41;;;;;;;0.80;0.50;;;;;;;11.15;94.05;99172.21;180560;1264;44226;-88
2023/03/25 12:16:19;;;;;;;0.20;0.20;;;;;;;11.37;89.83;99168.73;180604;1264;59555;-89
2023/03/25 12:20:40;;;;;;;0.20;0.20;;;;;;;11.47;88.63;99177.48;180639;1265;44518;-90
2023/03/25 12:25:02;;;;;;;0.90;0.20;;;;;;;11.45;87.25;99173.20;180542;1264;44464;-89
2023/03/25 12:29:54;;;;;;;1.50;0.40;;;;;;;11.35;86.87;99167.73;180733;1264;43810;-90
2023/03/25 12:34:16;;;;;;;2.00;0.50;;;;;;;11.38;87.02;99154.83;180496;1265;44156;-89
2023/03/25 12:38:31;;;;;;;1.50;0.40;;;;;;;11.62;85.71;99151.80;180739;1264;58039;-90
2023/03/25 12:42:55;;;;;;;1.00;0.30;;;;;;;11.80;83.56;99149.07;180620;1264;44077;-89
2023/03/25 12:47:19;;;;;;;0.30;0.10;;;;;;;12.09;85.98;99149.81;180645;1264;44113;-90
2023/03/25 12:51:37;;;;;;;0.10;0.10;;;;;;;12.38;83.03;99138.33;180695;1264;43946;-91
2023/03/25 12:55:51;;;;;;;0.50;0.20;;;;;;;12.60;81.45;99125.91;180708;1264;44344;-90
2023/03/25 13:00:19;;;;;;;0.30;0.30;;;;;;;12.77;81.40;99129.56;180636;1264;59338;-91
2023/03/25 13:04:35;;;;;;;0.20;0.20;;;;;;;12.69;79.11;99122.90;180617;1264;43788;-89
2023/03/25 13:08:55;;;;;;;0.50;0.50;;;;;;;12.67;79.72;99124.70;180625;1264;44079;-87
2023/03/25 13:13:02;;;;;;;0.60;0.40;;;;;;;12.74;79.22;99122.98;180630;1264;44132;-89
2023/03/25 13:17:14;;;;;;;0.60;0.60;;;;;;;12.94;80.60;99115.02;180640;1264;43717;-87
2023/03/25 13:21:21;;;;;;;2.20;0.30;;;;;;;12.98;77.91;99107.88;180601;1264;58335;-90
2023/03/25 13:25:48;;;;;;;0.30;0.30;;;;;;;13.10;78.59;99098.95;180766;1265;44212;-90
2023/03/25 13:29:53;;;;;;;;;;;;;;;13.46;78.21;99098.16;180691;1264;43810;-88
2023/03/25 13:34:34;;;;;;;0.40;0.30;;;;;;;13.81;75.02;99095.39;180757;1264;44264;-90
2023/03/25 13:38:46;;;;;;;1.10;0.60;;;;;;;14.30;73.90;99091.61;180826;1264;47915;-90
2023/03/25 13:43:05;;;;;;;1.20;0.70;;;;;;;14.54;72.54;99079.03;180734;1264;59257;-91
2023/03/25 13:47:18;;;;;;;1.70;0.40;;;;;;;14.76;71.12;99066.91;180771;1264;44013;-90
2023/03/25 13:51:23;;;;;;;1.30;0.90;;;;;;;14.82;67.68;99064.42;180773;1264;44017;-90
2023/03/25 13:55:42;;;;;;;1.10;0.60;;;;;;;14.80;68.39;99064.27;180884;1264;43759;-91
2023/03/25 14:00:07;;;;;;;2.30;1.10;;;;;;;14.66;67.37;99062.46;180661;1265;44130;-89
2023/03/25 14:04:27;;;;;;;2.00;1.00;;;;;;;14.18;69.55;99077.29;180637;1264;58310;-91
2023/03/25 14:08:56;;;;;;;0.60;0.30;;;;;;;13.10;72.88;99099.72;181282;1259;44127;-91
2023/03/25 14:13:08;;;;;;;0.50;0.20;;;;;;;11.45;84.21;99123.70;181240;1259;43961;-89
2023/03/25 14:17:15;;;;;;;0.60;0.60;;;;;;;10.55;89.31;99125.39;181152;1259;43789;-90
2023/03/25 14:21:46;;;;;;;0.80;0.30;;;;;;;10.27;92.12;99123.98;181213;1259;44135;-89
2023/03/25 14:25:58;;;;;;;1.90;0.30;;;;;;;10.28;92.53;99109.94;181232;1259;58330;-91
2023/03/25 14:30:19;;;;;;;0.50;0.30;;;;;;;10.38;91.94;99095.66;181124;1261;44203;-90
2023/03/25 14:34:24;;;;;;;1.90;1.00;;;;;;;10.46;93.51;99110.34;181138;1259;43773;-90
2023/03/25 14:38:55;;;;;;;2.20;1.10;;;;;;;10.56;93.92;99122.98;181326;1259;44424;-92
2023/03/25 14:43:02;;;;;;;3.40;0.70;;;;;;;10.68;87.78;99113.23;181284;1259;43783;-91
2023/03/25 14:47:16;;;;;;;1.70;1.10;;;;;;;10.74;87.89;99111.81;181103;1259;59067;-90
2023/03/25 14:51:25;;;;;;;2.20;0.50;;;;;;;10.84;87.49;99106.94;181180;1259;43766;-89
2023/03/25 14:59:57;;;;;;;1.60;0.70;;;;;;;11.08;89.02;99100.74;175926;1257;45212;-87
2023/03/25 15:13:59;;;;;;;0.90;0.50;;;;;;;11.93;88.23;99074.51;173625;1257;44442;-88
2023/03/25 15:18:03;;;;;;;2.00;0.40;;;;;;;12.35;87.04;99072.55;181278;1259;43975;-91
2023/03/25 15:22:19;;;;;;;0.80;0.60;;;;;;;12.60;84.66;99070.52;180996;1259;44046;-90
2023/03/25 15:26:29;;;;;;;2.50;1.10;;;;;;;12.79;84.56;99065.09;181135;1259;43852;-90
2023/03/25 15:30:47;;;;;;;1.30;0.90;;;;;;;12.99;83.93;99063.77;181085;1259;58753;-90
2023/03/25 15:34:53;;;;;;;1.90;1.00;;;;;;;13.04;81.62;99056.31;181132;1261;44137;-90
2023/03/25 15:39:11;;;;;;;2.30;1.20;;;;;;;13.18;83.13;99055.01;181228;1259;44332;-91
2023/03/25 15:43:46;;;;;;;2.10;0.80;;;;;;;13.24;81.43;99051.02;181186;1258;44120;-91
2023/03/25 15:48:26;;;;;;;;;;;;;;;13.12;80.40;99053.49;181446;1259;43856;-89
2023/03/25 15:57:32;;;;;;;1.70;1.40;;;;;;;12.58;81.41;99061.20;180975;1263;43801;-91
2023/03/25 16:01:45;;;;;;;1.90;1.30;;;;;;;12.35;82.80;99063.35;180962;1263;44378;-91
2023/03/25 16:06:00;;;;;;;3.10;1.90;;;;;;;12.15;83.70;99058.85;180712;1263;44049;-88
2023/03/25 16:32:46;;;;;;;2.30;2.00;;;;;;;11.75;91.05;99071.39;180076;1257;83201;-66
2023/03/25 16:41:29;;;;;;;4.30;2.90;;;;;;;11.75;91.45;99061.81;179934;1257;44209;-89
2023/03/25 16:51:18;;;;;;;6.50;4.40;;;;;;;11.63;90.09;99061.34;166829;1252;44416;31
2023/03/25 16:56:50;;;;;;;7.80;6.20;;;;;;;11.47;89.46;99057.45;176751;1252;44650;-88
2023/03/25 17:11:00;;;;;;;43.90;25.60;;;;;;;11.06;89.99;99062.62;181519;1258;44008;-88
2023/03/25 17:34:44;;;;;;;36.00;22.40;;;;;;;10.02;96.76;99072.63;180362;1252;84699;-69
2023/03/25 18:12:37;;;;;;;2.20;1.70;;;;;;;9.67;97.21;99154.61;180218;1252;58205;31
2023/03/25 18:36:03;;;;;;;3.70;2.70;;;;;;;9.60;95.77;99171.05;178028;1256;58225;-89
2023/03/25 18:49:49;;;;;;;1.90;0.60;;;;;;;9.47;94.01;99179.49;181411;1259;43706;-92
2023/03/25 18:54:17;;;;;;;1.90;1.50;;;;;;;9.39;94.33;99184.36;181367;1258;44041;-91
2023/03/25 19:03:13;;;;;;;4.10;1.30;;;;;;;9.26;94.60;99178.45;181119;1260;43760;-90
2023/03/25 19:11:50;;;;;;;3.00;0.80;;;;;;;9.19;94.03;99175.96;181122;1262;44192;-91
2023/03/25 19:16:16;;;;;;;1.80;0.70;;;;;;;9.10;94.00;99172.35;181039;1263;44005;-88
2023/03/25 19:20:43;;;;;;;1.80;1.00;;;;;;;9.01;94.21;99178.84;181054;1263;59007;-90
2023/03/25 19:24:59;;;;;;;1.50;1.10;;;;;;;8.93;94.14;99185.23;180924;1263;44003;-90
2023/03/25 19:29:08;;;;;;;1.40;1.00;;;;;;;8.85;94.39;99183.34;181032;1263;45812;-90
2023/03/25 19:37:56;;;;;;;4.90;2.40;;;;;;;8.68;95.02;99180.40;181106;1260;43863;-89
2023/03/25 19:42:13;;;;;;;7.20;2.60;;;;;;;8.58;95.14;99174.83;181108;1261;59177;-90
2023/03/25 19:46:29;;;;;;;5.70;2.00;;;;;;;8.56;94.36;99173.98;181111;1260;43985;-89
2023/03/25 19:50:43;;;;;;;3.10;1.50;;;;;;;8.61;93.70;99172.76;157984;1251;44416;31
2023/03/25 19:55:23;;;;;;;2.90;1.80;;;;;;;8.67;93.77;99173.80;180456;1252;44230;31
2023/03/25 20:10:27;;;;;;;2.10;1.40;;;;;;;9.09;90.35;99165.27;179790;1256;44895;31
2023/03/25 20:15:18;;;;;;;2.70;0.70;;;;;;;9.15;89.66;99163.79;181185;1258;45843;31
2023/03/25 20:29:45;;;;;;;5.20;1.30;;;;;;;9.39;88.06;99162.20;181605;1252;58733;31
2023/03/25 20:38:53;;;;;;;3.10;2.40;;;;;;;9.39;86.88;99153.34;180413;1252;44414;31
2023/03/25 20:43:52;;;;;;;2.70;1.50;;;;;;;9.37;86.32;99143.33;181026;1254;45135;31
2023/03/25 20:48:15;;;;;;;2.80;1.20;;;;;;;9.41;85.31;99144.56;178547;1252;45051;31
2023/03/25 20:57:38;;;;;;;3.40;1.40;;;;;;;9.55;84.82;99141.25;181409;1253;44190;31
2023/03/25 21:07:56;;;;;;;2.30;1.30;;;;;;;9.62;84.78;99140.58;181295;1254;45235;31
2023/03/25 21:27:06;;;;;;;2.20;1.00;;;;;;;9.54;84.37;99139.69;181466;1254;44342;31
2023/03/25 21:36:48;;;;;;;4.30;0.80;;;;;;;9.73;84.36;99142.73;172949;1257;45417;-89
2023/03/25 21:41:10;;;;;;;3.60;0.90;;;;;;;9.77;84.21;99140.42;181077;1257;58644;31
2023/03/25 21:46:05;;;;;;;2.40;1.30;;;;;;;9.87;83.49;99132.31;177158;1253;45617;31
2023/03/25 21:50:35;;;;;;;1.90;1.00;;;;;;;9.97;82.77;99127.34;181345;1252;45182;31
2023/03/25 21:55:13;;;;;;;1.80;0.80;;;;;;;10.06;82.15;99129.77;180398;1253;45299;31
2023/03/25 21:59:34;;;;;;;1.50;0.70;;;;;;;10.09;80.93;99129.10;180010;1252;44671;31
2023/03/25 22:04:32;;;;;;;1.10;0.70;;;;;;;10.09;80.27;99120.33;181448;1252;58312;31
2023/03/25 22:13:59;;;;;;;1.70;1.00;;;;;;;10.00;80.61;99118.38;180341;1252;45132;31
2023/03/25 22:42:03;;;;;;;1.50;1.00;;;;;;;9.66;80.27;99101.65;181588;1252;44873;-90
2023/03/25 23:02:00;;;;;;;2.90;1.00;;;;;;;9.56;81.66;99109.84;181433;1253;45124;31
2023/03/25 23:07:30;;;;;;;3.70;1.90;;;;;;;9.55;81.60;99098.24;181428;1253;84876;-92
2023/03/25 23:16:43;;;;;;;1.30;0.70;;;;;;;9.68;82.48;99103.20;181414;1256;64306;31
2023/03/25 23:30:30;;;;;;;3.00;1.40;;;;;;;9.62;82.06;99091.00;177232;1252;44949;31
2023/03/25 23:35:06;;;;;;;2.30;1.20;;;;;;;9.59;81.63;99080.84;181157;1255;44605;31
2023/03/25 23:39:39;;;;;;;3.00;1.60;;;;;;;9.55;82.12;99076.98;181566;1254;60398;31
